Ghada D — EROK — position and weather

sailwx.info

Track history (hours):
 
Tides and Currents Weather Stations Pressure Air Temp Water Temp Dewpoint Dewpoint Depression Visibility Wind Speed Wind Dir Waves Ship Positions

Ghada D

Last reported at 2013-Nov-22 21:22 UTC. Time now 2014-Jul-23 12:00 UTC.
Position N 44°13' E 037°46'.
Warning: this ship's position is months out of date.

Length 80 m; draft 4.4 m.

Type: Cargo ship. MMSI: 214181511.

Date/timePositionNaut miles runAvg speedWind from/ knotsBaromVisibWave heightAir tempDewpointWater temp
2013-Nov-22 21:22N 44°13' E 037°46'  
2013-Nov-15 17:34N 44°16' E 034°52'6 5.7
2013-Nov-15 16:34N 44°15' E 034°45'15 6.2
2013-Nov-15 14:13N 44°16' E 034°24'6 7.1
2013-Nov-15 13:22N 44°16' E 034°16'6 7.2
2013-Nov-15 12:33N 44°16' E 034°07'177 6.3
2013-Nov-14 08:31N 46°35' E 031°31'8 8.6
2013-Nov-14 07:34N 46°36' E 031°43'8 8.2
2013-Nov-14 06:34N 46°38' E 031°55'7 7.4
2013-Nov-14 05:34N 46°46' E 031°54'5 5.1
2013-Nov-14 04:33N 46°51' E 031°56'0 0.0
2013-Nov-14 03:33N 46°51' E 031°56'0 0.0
2013-Nov-14 02:33N 46°50' E 031°56'0 0.0
2013-Nov-14 01:33N 46°50' E 031°56'0 0.0
2013-Nov-14 00:33N 46°50' E 031°56'0 0.0
2013-Nov-13 23:34N 46°50' E 031°56'0 0.0
2013-Nov-13 22:32N 46°50' E 031°56'0 0.0
2013-Nov-13 21:32N 46°50' E 031°56'0 0.0
2013-Nov-13 20:32N 46°50' E 031°56'0 0.0
2013-Nov-13 19:32N 46°50' E 031°56'0 0.1
2013-Nov-13 18:32N 46°50' E 031°56'1 0.8
2013-Nov-13 17:27N 46°50' E 031°57'0 0.0
2013-Nov-13 15:06N 46°50' E 031°57'0 0.0
2013-Nov-13 05:32N 46°50' E 031°57'0 0.0
2013-Nov-13 04:32N 46°50' E 031°57'0 0.0
2013-Nov-13 03:32N 46°50' E 031°57'0 0.0
2013-Nov-13 02:32N 46°50' E 031°57'0 0.0
2013-Nov-13 01:32N 46°50' E 031°57'0 0.0
2013-Nov-13 00:31N 46°50' E 031°57'0 0.0
2013-Nov-12 23:31N 46°50' E 031°57'  
Track history (hours):
 
Tides and Currents Weather Stations Pressure Air Temp Water Temp Dewpoint Dewpoint Depression Visibility Wind Speed Wind Dir Waves Ship Positions

Ghada D

Last reported at 2013-Nov-22 21:22 UTC. Time now 2014-Jul-23 12:00 UTC.
Position N 44°13' E 037°46'.
Warning: this ship's position is months out of date.

Length 80 m; draft 4.4 m.

Type: Cargo ship. MMSI: 214181511.

Date/timePositionNaut miles runAvg speedWind from/ knotsBaromVisibWave heightAir tempDewpointWater temp
2013-Nov-22 21:22N 44°13' E 037°46'  
2013-Nov-15 17:34N 44°16' E 034°52'6 5.7
2013-Nov-15 16:34N 44°15' E 034°45'15 6.2
2013-Nov-15 14:13N 44°16' E 034°24'6 7.1
2013-Nov-15 13:22N 44°16' E 034°16'6 7.2
2013-Nov-15 12:33N 44°16' E 034°07'177 6.3
2013-Nov-14 08:31N 46°35' E 031°31'8 8.6
2013-Nov-14 07:34N 46°36' E 031°43'8 8.2
2013-Nov-14 06:34N 46°38' E 031°55'7 7.4
2013-Nov-14 05:34N 46°46' E 031°54'5 5.1
2013-Nov-14 04:33N 46°51' E 031°56'0 0.0
2013-Nov-14 03:33N 46°51' E 031°56'0 0.0
2013-Nov-14 02:33N 46°50' E 031°56'0 0.0
2013-Nov-14 01:33N 46°50' E 031°56'0 0.0
2013-Nov-14 00:33N 46°50' E 031°56'0 0.0
2013-Nov-13 23:34N 46°50' E 031°56'0 0.0
2013-Nov-13 22:32N 46°50' E 031°56'0 0.0
2013-Nov-13 21:32N 46°50' E 031°56'0 0.0
2013-Nov-13 20:32N 46°50' E 031°56'0 0.0
2013-Nov-13 19:32N 46°50' E 031°56'0 0.1
2013-Nov-13 18:32N 46°50' E 031°56'1 0.8
2013-Nov-13 17:27N 46°50' E 031°57'0 0.0
2013-Nov-13 15:06N 46°50' E 031°57'0 0.0
2013-Nov-13 05:32N 46°50' E 031°57'0 0.0
2013-Nov-13 04:32N 46°50' E 031°57'0 0.0
2013-Nov-13 03:32N 46°50' E 031°57'0 0.0
2013-Nov-13 02:32N 46°50' E 031°57'0 0.0
2013-Nov-13 01:32N 46°50' E 031°57'0 0.0
2013-Nov-13 00:31N 46°50' E 031°57'0 0.0
2013-Nov-12 23:31N 46°50' E 031°57'  

Dump ship's entire track history